Latest Weather Observations for Weipa

IDQ60801

Issued at 7:02 am EST Sunday 22 October 2017 (issued every 30 minutes, with the page automatically refreshed every 10 minutes)

About weather observations | Map of weather stations | Latest weather observations for QLD | Other Formats
Station Details ID: 027045 Name: WEIPA AERO Lat: -12.68 Lon: 141.92 Height: 17.96 m
Data from the previous 72 hours. | See also: Recent months at Weipa
Date/Time
EST
Temp
°C
App
Temp
°C
Dew
Point
°C
Rel
Hum
%
Delta-T
°C
Wind Press
QNH
hPa
Press
MSL
hPa
Rain since
9am
mm
Dir  Spd
km/h
Gust
km/h
Spd
kts
Gust
kts
22/07:00am 25.3 29.4 23.2 88 1.4 E 7 9 4 5 1010.5 1010.4 0.0
22/06:30am 24.3 29.4 22.7 91 1.1 CALM 0 0 0 0 1010.3 1010.2 0.0
22/06:00am 23.7 28.5 22.1 91 1.1 CALM 0 6 0 3 1010.2 1010.1 0.0
22/05:30am 23.8 28.6 22.1 90 1.1 CALM 0 0 0 0 1009.9 1009.8 0.0
22/05:00am 24.2 29.2 22.5 90 1.1 CALM 0 0 0 0 1009.6 1009.4 0.0
22/04:30am 24.2 27.9 22.5 90 1.1 ENE 7 9 4 5 1009.4 1009.2 0.0
22/04:06am 24.3 28.2 22.6 90 1.1 ENE 6 7 3 4 1009.4 1009.2 0.0
22/04:00am 24.4 28.4 22.7 90 1.1 ENE 6 7 3 4 1009.4 1009.2 0.0
22/03:50am 24.4 27.8 22.7 90 1.1 ENE 9 11 5 6 1009.3 1009.1 0.0
22/03:30am 24.5 28.0 22.8 90 1.1 ENE 9 11 5 6 1009.4 1009.2 0.0
22/03:00am 24.5 28.2 22.6 89 1.3 E 7 9 4 5 1009.6 1009.4 0.0
22/02:30am 24.8 28.7 22.5 87 1.5 E 6 7 3 4 1009.9 1009.8 0.0
22/02:00am 25.0 28.9 22.5 86 1.7 ENE 6 9 3 5 1010.3 1010.2 0.0
22/01:30am 25.2 28.9 22.5 85 1.8 ENE 7 9 4 5 1010.4 1010.3 0.0
22/01:00am 25.3 28.5 22.4 84 1.9 E 9 11 5 6 1010.7 1010.6 0.0
22/12:30am 25.6 29.4 22.7 84 2.0 ESE 7 11 4 6 1011.0 1010.9 0.0
22/12:00am 25.8 29.6 22.7 83 2.1 E 7 9 4 5 1011.2 1011.1 0.0
 
Date/Time
EST
Temp
°C
App
Temp
°C
Dew
Point
°C
Rel
Hum
%
Delta-T
°C
Wind Press
QNH
hPa
Press
MSL
hPa
Rain since
9am
mm
Dir  Spd
km/h
Gust
km/h
Spd
kts
Gust
kts
21/11:30pm 26.0 29.3 22.5 81 2.4 E 9 11 5 6 1011.4 1011.3 0.0
21/11:00pm 26.6 30.1 22.9 80 2.5 ESE 9 13 5 7 1011.6 1011.5 0.0
21/10:30pm 27.0 31.0 22.8 78 2.8 SE 6 7 3 4 1011.5 1011.4 0.0
21/10:00pm 27.2 32.3 22.6 76 3.1 CALM 0 0 0 0 1011.3 1011.2 0.0
21/09:30pm 27.5 31.8 22.7 75 3.3 SW 4 7 2 4 1011.2 1011.1 0.0
21/09:00pm 27.8 31.6 22.7 74 3.5 SSW 7 11 4 6 1011.2 1011.1 0.0
21/08:30pm 27.9 31.1 22.4 72 3.7 SSW 9 15 5 8 1011.1 1011.0 0.0
21/08:00pm 28.0 31.3 22.5 72 3.7 SW 9 15 5 8 1010.6 1010.5 0.0
21/07:30pm 27.9 31.1 23.1 75 3.3 SW 11 19 6 10 1010.2 1010.1 0.0
21/07:00pm 27.9 31.0 22.8 74 3.5 WSW 11 17 6 9 1009.8 1009.7 0.0
21/06:30pm 28.3 30.3 22.3 70 4.1 WSW 15 20 8 11 1009.4 1009.2 0.0
21/06:00pm 29.2 31.3 22.4 66 4.6 WSW 15 22 8 12 1009.0 1008.8 0.0
21/05:30pm 30.0 32.0 22.2 63 5.3 WSW 15 24 8 13 1008.9 1008.7 0.0
21/05:00pm 30.2 31.8 22.1 62 5.5 W 17 24 9 13 1008.6 1008.4 0.0
21/04:30pm 30.7 32.1 21.8 59 6.0 W 17 28 9 15 1008.1 1007.9 0.0
21/04:00pm 31.3 33.0 22.3 58 6.1 W 17 24 9 13 1008.2 1008.0 0.0
21/03:30pm 31.7 33.3 22.1 56 6.5 W 17 24 9 13 1008.4 1008.2 0.0
21/03:00pm 31.3 32.5 21.5 56 6.6 NW 17 24 9 13 1008.7 1008.5 0.0
21/02:30pm 32.2 33.9 23.4 59 6.1 NW 20 30 11 16 1009.2 1009.0 0.0
21/02:00pm 32.0 33.0 24.1 63 5.5 NW 26 35 14 19 1009.6 1009.4 0.0
21/01:30pm 30.7 31.8 23.1 64 5.2 NNW 22 33 12 18 1009.8 1009.7 0.0
21/01:00pm 33.5 34.9 20.3 46 8.8 SW 13 20 7 11 1010.2 1010.1 0.0
21/12:30pm 32.6 35.7 22.1 54 7.2 W 9 15 5 8 1010.8 1010.7 0.0
21/12:00pm 30.8 33.6 21.6 58 6.2 SW 9 13 5 7 1011.6 1011.5 0.0
21/11:30am 31.1 34.9 22.4 60 5.9 SSW 6 11 3 6 1012.2 1012.1 0.0
21/11:00am 30.7 33.5 21.5 58 6.2 NE 9 15 5 8 1012.5 1012.4 0.0
21/10:30am 30.1 32.7 22.0 62 5.5 SE 11 17 6 9 1012.7 1012.6 0.0
21/10:00am 28.5 31.4 21.8 67 4.5 E 9 19 5 10 1012.9 1012.8 0.0
21/09:30am 28.5 31.5 22.7 71 3.9 ESE 11 19 6 10 1012.9 1012.8 0.0
21/09:00am 27.9 31.2 22.6 73 3.6 SE 9 15 5 8 1013.1 1013.0 1.4
21/08:30am 26.8 30.3 22.8 79 2.7 ESE 9 15 5 8 1013.0 1012.9 1.4
21/08:00am 25.9 29.4 22.8 83 2.1 SE 9 13 5 7 1013.2 1013.1 1.4
21/07:30am 24.7 28.3 22.4 87 1.5 SE 7 9 4 5 1012.9 1012.8 1.4
21/07:00am 24.5 29.7 22.8 90 1.1 CALM 0 0 0 0 1012.5 1012.4 1.4
21/06:30am 23.8 28.7 22.4 92 0.9 CALM 0 0 0 0 1012.3 1012.2 1.4
21/06:00am 23.4 28.0 21.8 91 1.1 CALM 0 0 0 0 1012.0 1011.9 1.4
21/05:30am 23.4 28.1 22.0 92 0.9 CALM 0 0 0 0 1011.7 1011.6 1.4
21/05:00am 23.4 28.0 21.8 91 1.1 CALM 0 0 0 0 1011.3 1011.2 1.4
21/04:30am 23.4 28.0 21.7 90 1.1 CALM 0 0 0 0 1011.2 1011.1 1.4
21/04:00am 23.5 27.4 21.8 90 1.1 NW 4 7 2 4 1011.0 1010.9 1.4
21/03:30am 24.0 28.3 21.9 88 1.4 ENE 2 6 1 3 1010.9 1010.8 1.4
21/03:00am 24.3 29.1 22.2 88 1.4 CALM 0 7 0 4 1010.8 1010.7 1.4
21/02:30am 24.3 27.3 22.0 87 1.5 ESE 9 13 5 7 1011.1 1011.0 1.4
21/02:00am 24.5 28.0 22.2 87 1.5 SE 7 9 4 5 1011.4 1011.3 1.4
21/01:30am 24.8 28.0 22.3 86 1.7 ESE 9 13 5 7 1011.5 1011.4 1.4
21/01:00am 24.6 28.1 22.1 86 1.7 SSE 7 11 4 6 1011.8 1011.7 1.4
21/12:30am 24.9 27.5 22.6 87 1.5 SE 13 15 7 8 1011.8 1011.7 1.4
21/12:00am 25.1 27.4 22.8 87 1.6 ESE 15 17 8 9 1012.3 1012.2 1.4
 
Date/Time
EST
Temp
°C
App
Temp
°C
Dew
Point
°C
Rel
Hum
%
Delta-T
°C
Wind Press
QNH
hPa
Press
MSL
hPa
Rain since
9am
mm
Dir  Spd
km/h
Gust
km/h
Spd
kts
Gust
kts
20/11:30pm 25.2 28.4 23.1 88 1.4 SE 11 13 6 7 1013.2 1013.1 1.2
20/11:00pm 25.1 29.2 23.3 90 1.2 SSE 7 11 4 6 1013.6 1013.5 1.2
20/10:30pm 24.9 29.8 23.1 90 1.2 SSW 2 6 1 3 1013.7 1013.6 1.2
20/10:00pm 24.8 28.2 23.4 92 1.0 SSE 11 13 6 7 1013.4 1013.3 1.2
20/09:30pm 24.8 28.1 23.2 91 1.1 SSE 11 15 6 8 1013.2 1013.1 1.2
20/09:00pm 24.9 29.2 23.3 91 1.1 SSE 6 13 3 7 1013.2 1013.1 0.8
20/08:30pm 24.9 28.6 23.3 91 1.1 SW 9 13 5 7 1013.0 1012.9 0.6
20/08:00pm 25.4 29.0 23.1 87 1.6 SW 9 17 5 9 1012.7 1012.6 0.2
20/07:30pm 25.6 28.6 22.7 84 2.0 NW 11 17 6 9 1012.1 1012.0 0.2
20/07:00pm 26.8 31.9 23.3 81 2.4 WNW 2 9 1 5 1011.9 1011.8 0.2
20/06:30pm 26.9 30.2 22.5 77 3.0 SSE 9 13 5 7 1011.1 1011.0 0.2
20/06:00pm 27.5 29.8 22.0 72 3.7 SE 13 17 7 9 1010.6 1010.5 0.2
20/05:30pm 28.4 32.0 22.4 70 4.1 SSE 7 17 4 9 1010.3 1010.2 0.2
20/05:00pm 28.3 31.2 22.5 71 3.9 SW 11 19 6 10 1010.0 1009.9 0.2
20/04:30pm 29.1 31.3 22.6 68 4.4 W 15 26 8 14 1009.7 1009.6 0.2
20/04:00pm 29.3 30.0 22.3 66 4.7 NW 22 28 12 15 1009.6 1009.4 0.2
20/03:30pm 34.0 34.7 18.9 41 9.9 ESE 13 19 7 10 1009.4 1009.2 0.2
20/03:00pm 33.2 31.5 18.2 41 9.7 E 24 32 13 17 1009.6 1009.4 0.2
20/02:30pm 34.1 31.1 18.6 40 10.1 ESE 32 39 17 21 1009.8 1009.7 0.2
20/02:00pm 34.8 34.4 18.0 37 10.9 ENE 17 28 9 15 1010.0 1009.9 0.2
20/01:30pm 33.8 32.7 18.7 40 9.9 ESE 22 30 12 16 1010.4 1010.3 0.2
20/01:00pm 34.3 33.9 18.8 40 10.2 NE 19 33 10 18 1010.7 1010.6 0.2
20/12:30pm 33.8 33.5 19.5 43 9.4 E 20 32 11 17 1011.4 1011.3 0.2
20/12:00pm 33.6 32.8 19.3 43 9.4 ENE 22 33 12 18 1012.0 1011.9 0.2
20/11:30am 32.7 31.8 19.9 46 8.5 E 24 32 13 17 1012.3 1012.2 0.2
20/11:00am 32.7 31.8 20.6 49 8.1 E 26 33 14 18 1012.5 1012.4 0.2
20/10:30am 31.5 32.1 21.4 55 6.8 E 20 30 11 16 1012.7 1012.6 0.2
20/10:00am 30.6 30.6 21.7 59 6.0 E 24 37 13 20 1012.9 1012.8 0.2
20/09:30am 30.2 31.0 22.4 63 5.3 E 22 30 12 16 1013.1 1013.0 0.0
20/09:00am 28.1 29.2 22.3 70 3.9 E 20 28 11 15 1013.1 1013.0 4.8
20/08:30am 27.6 28.2 22.1 72 3.7 E 22 32 12 17 1012.9 1012.8 4.8
20/08:00am 26.6 29.3 22.9 80 2.5 E 13 20 7 11 1012.7 1012.6 4.8
20/07:30am 26.0 28.6 22.7 82 2.2 ESE 13 17 7 9 1012.4 1012.3 4.8
20/07:00am 25.4 28.9 22.9 86 1.7 ESE 9 11 5 6 1012.0 1011.9 4.8
20/06:30am 24.5 28.0 22.8 90 1.1 ESE 9 11 5 6 1011.7 1011.6 4.8
20/06:00am 24.3 28.0 22.6 90 1.1 ESE 7 9 4 5 1011.4 1011.3 4.8
20/05:30am 24.4 28.1 22.5 89 1.3 ESE 7 7 4 4 1011.0 1010.9 4.8
20/05:00am 24.4 28.1 22.5 89 1.3 E 7 9 4 5 1010.8 1010.7 4.8
20/04:40am 24.3 27.0 22.2 88 1.4 SE 11 13 6 7 1010.5 1010.4 4.8
20/04:30am 24.5 26.5 22.2 87 1.5 SE 15 20 8 11 1010.5 1010.4 4.8
20/04:28am 24.5 26.0 22.0 86 1.7 SE 17 20 9 11 1010.5 1010.4 4.8
20/04:00am 25.1 27.8 22.2 84 1.9 E 11 15 6 8 1010.6 1010.5 4.8
20/03:30am 25.1 28.2 22.2 84 1.9 E 9 11 5 6 1010.7 1010.6 4.8
20/03:00am 24.8 28.5 22.5 87 1.5 SE 7 9 4 5 1010.5 1010.4 4.8
20/02:30am 24.9 28.8 23.0 89 1.3 ESE 7 11 4 6 1010.4 1010.3 4.8
20/02:00am 24.8 28.7 22.9 89 1.3 SE 7 11 4 6 1010.4 1010.3 4.8
20/01:30am 25.1 30.3 22.8 87 1.6 CALM 0 2 0 1 1011.0 1010.9 4.8
20/01:00am 25.1 28.7 23.0 88 1.4 E 9 11 5 6 1011.1 1011.0 4.8
20/12:30am 25.2 30.1 23.1 88 1.4 S 2 7 1 4 1011.4 1011.3 4.8
20/12:00am 25.8 29.7 22.9 84 2.0 E 7 9 4 5 1011.8 1011.7 4.8
 
Date/Time
EST
Temp
°C
App
Temp
°C
Dew
Point
°C
Rel
Hum
%
Delta-T
°C
Wind Press
QNH
hPa
Press
MSL
hPa
Rain since
9am
mm
Dir  Spd
km/h
Gust
km/h
Spd
kts
Gust
kts
19/11:30pm 25.5 29.4 23.6 89 1.3 SE 9 11 5 6 1012.2 1012.1 4.8
19/11:00pm 25.3 29.5 23.5 90 1.2 SSE 7 9 4 5 1012.5 1012.4 4.8
19/10:30pm 25.3 29.8 23.7 91 1.1 WSW 6 7 3 4 1012.7 1012.6 4.8
19/10:00pm 25.2 29.0 23.4 90 1.2 SSW 9 13 5 7 1012.4 1012.3 4.8
19/09:35pm 25.6 30.0 23.5 88 1.4 S 6 13 3 7 1012.1 1012.0 4.0
19/09:30pm 25.8 30.6 23.5 87 1.6 SSW 4 7 2 4 1012.2 1012.1 3.6
19/09:21pm 25.9 30.9 23.2 85 1.8 W 2 7 1 4 1012.0 1011.9 3.6
19/09:00pm 25.9 28.8 22.4 81 2.4 ESE 11 15 6 8 1011.7 1011.6 3.0
19/08:52pm 27.0 30.6 22.4 76 3.1 ESE 7 15 4 8 1011.5 1011.4 0.8
19/08:30pm 27.6 29.6 21.6 70 4.0 SE 13 19 7 10 1011.0 1010.9 0.0
19/08:00pm 27.8 31.8 21.3 67 4.3 SSE 2 11 1 6 1010.7 1010.6 0.0
19/07:30pm 27.7 29.8 21.0 67 4.4 N 11 15 6 8 1010.2 1010.1 0.0
19/07:00pm 28.4 31.0 22.6 71 3.9 W 13 19 7 10 1009.5 1009.3 0.0
19/06:30pm 28.4 30.2 22.6 71 3.9 WNW 17 22 9 12 1008.9 1008.7 0.0
19/06:00pm 29.1 30.9 22.6 68 4.4 W 17 24 9 13 1008.3 1008.1 0.0
19/05:30pm 29.5 31.1 22.2 65 4.9 W 17 24 9 13 1007.4 1007.2 0.0
19/05:00pm 30.2 31.1 21.6 60 5.8 W 19 30 10 16 1006.9 1006.7 0.0
19/04:30pm 31.0 32.1 22.3 60 5.9 W 20 32 11 17 1006.8 1006.6 0.0
19/04:00pm 31.3 32.6 22.6 60 6.0 W 20 33 11 18 1006.6 1006.4 0.0
19/03:53pm 30.9 30.9 21.7 58 6.2 W 24 35 13 19 1006.5 1006.3 0.0
19/03:30pm 36.3 36.6 15.9 29 12.9 NE 9 19 5 10 1006.5 1006.3 0.0
19/03:00pm 35.1 35.0 14.9 29 12.6 ENE 9 15 5 8 1006.6 1006.4 0.0
19/02:30pm 34.1 32.9 15.1 32 11.8 ESE 15 26 8 14 1007.1 1006.9 0.0
19/02:00pm 34.4 34.0 15.3 31 11.9 ESE 11 20 6 11 1007.4 1007.2 0.0
19/01:30pm 34.7 33.9 16.1 33 11.8 SE 15 28 8 15 1007.8 1007.6 0.0
19/01:00pm 33.3 32.3 16.6 36 10.6 SE 17 28 9 15 1008.5 1008.3 0.0
19/12:30pm 33.9 33.5 16.3 35 11.1 E 13 26 7 14 1008.9 1008.7 0.0
19/12:00pm 33.2 33.3 17.4 39 10.1 NE 13 20 7 11 1009.3 1009.1 0.0
19/11:30am 33.4 32.5 18.3 40 9.8 NE 20 30 11 16 1009.8 1009.7 0.0
19/11:00am 33.0 33.1 19.1 43 9.1 ENE 17 30 9 16 1010.1 1010.0 0.0
19/10:30am 31.5 31.1 18.8 46 8.3 ENE 19 28 10 15 1010.4 1010.3 0.0
19/10:00am 31.0 30.6 19.4 50 7.6 E 20 30 11 16 1010.8 1010.7 0.0
19/09:30am 29.9 29.8 19.9 55 6.6 ENE 20 30 11 16 1011.2 1011.1 0.0
19/09:00am 29.3 29.2 19.9 57 6.2 E 20 28 11 15 1011.6 1011.5 0.0
19/08:30am 28.6 28.6 20.1 60 5.6 ENE 20 24 11 13 1011.4 1011.3 0.0
19/08:00am 28.0 28.9 21.5 67 4.3 E 19 24 10 13 1011.3 1011.2 0.0
19/07:30am 26.4 28.6 21.8 76 3.1 E 13 17 7 9 1011.0 1010.9 0.0

Other Formats:

Comma delimited format used in spreadsheet applications
http://www.bom.gov.au/fwo/IDQ60801/IDQ60801.94170.axf

JavaScript Object Notation format (JSON) in row-major order
http://www.bom.gov.au/fwo/IDQ60801/IDQ60801.94170.json